Resolution Run 5K: All-Time Best Men
Montgomery High School Course, 2000 to 2014; .. A Place to Play Course, 2015 to Present
All-Time Top Ten: All Age Groups
Rank Name Age Time Year
1 Reesey Byers 20 15:10 2013
2 Dante Capone 27 15:17 2024
3 Tom Brooks 30 15:28 2009
4 Nick Spector 23 15:36 2015
5 Cristian Nazarek 19 15:39 2015
6 Devan Becker 25 15:45 2024
7 Scott Kruetzfeldt 18 15:50 2019
8 Ty Strange 40 15:55 2001
9 Noah Forrey 26 15:56 2022
10 J.K. Withers 18 16:01 2005
All-Time Top Ten: Age 12-and-under
Rank Name Age Time Year
1 Job Skandera 12 18:15 2014
2 Daniel Skandera 8 18:50 2016
3 Matthew Salazar 12 19:22 2011
4 Daniel Pride 11 19:54 2011
5 Paul Skandera 9 19:56 2020
6 Numa Crist 12 19:59 2018
7 Lucas Chung 12 20:37 2014
8 Nehemiah Skandera 11 20:40 2014
9 Fletcher Crowell 7 20:42 2020
10 Cooper Cheney 9 20:57 2022
All-Time Top Ten: Age 13 to 15
Rank Name Age Time Year
1 Jordan Kinley 15 16:06 2000
2 Matt Salazar 15 16:20 2014
3 Lucas Chung 15 16:26 2017
4 Daniel Pride 15 16:27 2015
5 Paden Collard 15 16:49 2017
6 Nolan Hosbein 15 16:56 2019
7 Regan Masi 14 17:08 2000
8 Luis Luna 14 17:13 2009
9 Nehemiah Skandera 15 17:22 2018
10 Andrew Engel 15 17:58 2017
All-Time Top Ten: Age 16 to 19
Rank Name Age Time Year
1 Reesey Byers 19 15:11 2012
2 Cristian Nazarek 19 15:39 2015
3 Scott Kruetzfeldt 18 15:50 2019
4 J.K. Withers 18 16:01 2005
5 Daniel Hauptman 19 16:10 2013
6 Jude DeVries 18 16:19 2023
7 Luis Luna 17 16:20 2012
8 Daniel Pride 17 16:21 2017
9 Dante Capone 19 16:22 2016
10 Nicholas Rauch 17 16:23 2015
All-Time Top Ten: Age 20 to 24
Rank Name Age Time Year
1 Reesey Byers 20 15:10 2013
2 Dante Capone 22 15:22 2019
3 Nick Spector 23 15:36 2015
4 Justin Bullock 23 15:59 2016
5 Gus Greenstein 20 16:10 2013
6 Alex Wolf-Root 22 16:29 2009
7 Scott Kruetzfeldt 22 16:45 2023
8 Patrick Lynch Jr. 20 16:46 2020
9 Brice Winkler 20 16:50 2009
10 Noah Forrey 24 16:54 2020
All-Time Top Ten: Age 25 to 29
Rank Name Age Time Year
1 Dante Capone 27 15:17 2024
2 Nick Spector 25 15:45 2017
3 Devan Becker 25 15:45 2024
4 Noah Forrey 26 15:56 2022
5 Chris Tose 28 16:06 2024
6 Tyler Harwood 26 16:08 2019
7 Jeff Gardina 26 16:19 2009
8 Jake Dialesandro 26 16:20 2016
9 Vojta Ripa 27 16:23 2017
10 Brian Goodwin 25 16:54 2018
All-Time Top Ten: Age 30 to 34
Rank Name Age Time Year
1 Tom Brooks 30 15:28 2009
2 Kenny Brown 34 16:22 2004
3 Eric Bohn 33 16:26 2000
4 Gerald McCormick 33 16:44 2016
5 Eric Walker 33 16:53 2002
6 Sean Fitzpatrick 34 16:56 2007
7 John Staroba 33 17:33 2013
8 Eric Downing 34 18:08 2006
9 Nathan Koch 30 18:13 2011
10 Andy Brodziak 30 18:17 2009
All-Time Top Ten: Age 35 to 39
Rank Name Age Time Year
1 Kenny Brown 35 16:35 2005
2 Eric. Bohn 37 16:36 2004
3 Ty Strange 39 16:54 2000
4 John Staroba 36 16:56 2016
5 Eric Walker 35 16:59 2004
6 Steve McFarland 37 17:00 2024
7 Sean Fitzpatrick 35 17:03 2008
8 J.D. Kurz 37 17:12 2015
9 Clinton Stevens 36 17:21 2010
10 T.R. Parker 35 17:22 2015
All-Time Top Ten: Age 40 to 44
Rank Name Age Time Year
1 Ty Strange 40 15:55 2001
2 Richard Flores 44 16:06 2000
3 Brandon Bannister 44 16:40 2020
4 Larry Meredith 42 16:46 2000
5 Stephen Agar 44 17:14 2013
6 Don Stewart 44 17:41 2006
7 Kenny Brown 40 17:57 2010
8 Greg Clementi 42 18:00 2001
9 Vince Ewing 44 18:06 2009
10 Stephen Starkweather 40 18:11 2001
All-Time Top Ten: Age 45 to 49
Rank Name Age Time Year
1 Ty Strange 48 16:44 2009
2 Stephen Agar 45 16:48 2014
3 Brandon Bannister 46 16:57 2022
4 Don Stewart 48 17:15 2010
5 Niels Thompson 48 17:39 2012
6 Steve Cleal 48 18:02 2006
7 Kenny Brown 47 18:08 2015
8 Andy Howard 47 18:12 2009
9 Ezequiel Molina 47 18:13 2022
10 Bob Rogers 46 18:21 2004
All-Time Top Ten: Age 50 to 54
Rank Name Age Time Year
1 Guy Schott 51 17:13 2015
2 Ty Strange 50 17:33 2011
3 Danny Aldridge 50 17:50 2007
3 Don Stewart 52 17:50 2014
5 Jonathan Hayden 54 18:14 2011
6 Andy Howard 50 18:25 2012
7 Matt Rypka 51 18:31 2017
8 Jerry Lyman 53 18:46 2003
9 John Lundy 50 18:48 2014
10 Larry Meredith 50 18:49 2008
All-Time Top Ten: Age 55 to 59
Rank Name Age Time Year
1 Danny Aldridge 58 18:05 2015
2 Dan Preston 58 18:13 2001
2 Jonathan Hayden 55 18:13 2012
4 Guy Schott 56 18:19 2020
5 Niels Thomsen 58 18:52 2022
6 Brad Zanetti 57 18:57 2012
7 Brendan Hutchinson 56 19:01 2000
8 Jerry Lyman 55 19:04 2005
9 Andy Howard 56 19:31 2019
9 John Lundy 56 19:31 2020
All-Time Top Ten: Age 60 to 64
Rank Name Age Time Year
1 Guy Schott 60 18:56 2024
2 Don Stewart 60 19:20 2022
3 Darryl Beardall 64 19:30 2001
4 Brad Zanetti 60 19:43 2015
5 Richard Quinn 63 19:49 2016
6 Lon Wiley 61 20:06 2010
6 Steve Cryer 62 20:06 2015
8 Jerry Lyman 60 20:31 2010
9 Don Lindsay 61 20:35 2015
10 Dan Preston 64 20:41 2007
All-Time Top Ten: Age 65 to 69
Rank Name Age Time Year
1 Anthony Fleming 65 20:27 2013
2 Michael Holland 68 21:09 2017
2 Jon Hermstad 66 21:13 2015
4 Brendan Hutchinson 68 21:26 2012
5 Lon Wiley 69 21:43 2018
6 Len Geraldi 66 21:51 2003
7 Ralph Harms 65 22:20 2001
8 Darryl Beardall 66 22:22 2003
9 Dan Preston 65 22:26 2008
10 Carl Jackson 66 22:47 2000
All-Time Top Ten: Age 70 to 74
Rank Name Age Time Year
1 Lon Wiley 70 21:52 2019
2 Bruce Burton 70 22:23 2024
3 Darryl Beardall 70 23:13 2007
4 Dan Tuohy 70 23:16 2006
5 Mike McGuire 70 23:21 2016
6 Brendan Hutchinson 71 23:26 2015
7 Jon Hermstad 70 23:59 2019
8 Robert Holland 72 25:00:00 2017
9 Asher Nathan 71 25:31:00 2019
10 Gilbert Moreno 70 25:39:00 2014
All-Time Top Ten: Age 75 to 79
Rank Name Age Time Year
1 Lon Wiley 75 22:57 2024
2 Brendan Hutchinson 75 25:25:00 2019
3 Jim Ray 77 25:48:00 2003
4 William Marshall 76 27:03:00 2017
5 Carl Jackson 75 27:10:00 2008
6 Dale Leyhe 75 29:06:00 2007
7 Darryl Beardall 76 29:34:00 2013
8 Charles Hoagland 77 31:59:00 2006
9 Dale Trowbridge 75 34:19:00 2016
10 Dan Tuohy 78 35:06:00 2014
All-Time Top Ten: Age 80 to 89
Rank Name Age Time Year
1 Carl Jackson 80 32:43:00 2014
2 Dale Leyhe 80 33:08:00 2012
3 Donald Soroka 84 35:22:00 2017
4 Dan Tuohy 82 36:09:00 2018
5 William Marshall 83 38:30:00 2024
6 Darryl Beardall 81 46:04:00 2018
7 Bob Bellino 81 47:28:00 2024
8 Roger Anawalt 86 55:12:00 2006
All-Time Top Ten: Age 90-and-over
Rank Name Age Time Year
1 Roger Anawalt 90 61:25:00 2010